Time;durP1;ratioP1;P1;durP2;ratioP2;P2;SDS_P1;SDS_P2;PMS_P1;PMS_P2;Temp;Humidity;BMP_temperature;BMP_pressure;BME280_temperature;BME280_humidity;BME280_pressure;Samples;Min_cycle;Max_cycle;Signal;HPM_P1;HPM_P2
2023/08/11 00:02:29;;;;;;;5.35;4.63;;;18.40;99.90;;;;;;4983022;28;36377;-78
2023/08/11 00:04:56;;;;;;;6.00;4.63;;;18.40;99.90;;;;;;4995849;28;39410;-78
2023/08/11 00:07:23;;;;;;;7.18;4.53;;;18.50;99.90;;;;;;4982510;28;38620;-78
2023/08/11 00:09:49;;;;;;;4.63;4.20;;;18.40;99.90;;;;;;4990253;28;38261;-78
2023/08/11 00:12:15;;;;;;;5.10;4.55;;;18.40;99.90;;;;;;4983045;28;36077;-78
2023/08/11 00:14:41;;;;;;;5.55;4.82;;;18.50;99.90;;;;;;4982011;28;38037;-78
2023/08/11 00:17:07;;;;;;;6.40;4.75;;;18.40;99.90;;;;;;4983386;28;36355;-78
2023/08/11 00:19:33;;;;;;;6.43;4.22;;;18.40;99.90;;;;;;4989923;28;39137;-78
2023/08/11 00:21:59;;;;;;;7.88;5.20;;;18.40;99.90;;;;;;4991574;28;36398;-78
2023/08/11 00:24:26;;;;;;;7.78;4.97;;;18.30;99.90;;;;;;4983422;28;38681;-78
2023/08/11 00:26:52;;;;;;;6.93;4.43;;;18.30;99.90;;;;;;4980738;28;40454;-78
2023/08/11 00:29:18;;;;;;;5.93;4.85;;;18.30;99.90;;;;;;4981349;28;37460;-78
2023/08/11 00:31:45;;;;;;;6.25;4.63;;;18.20;99.90;;;;;;4980563;28;36810;-78
2023/08/11 00:34:11;;;;;;;8.40;5.30;;;18.20;99.90;;;;;;4981359;28;38885;-78
2023/08/11 00:36:37;;;;;;;7.20;5.10;;;18.20;99.90;;;;;;4976969;28;38784;-78
2023/08/11 00:39:03;;;;;;;6.25;5.18;;;18.30;99.90;;;;;;4982692;28;36714;-78
2023/08/11 00:41:30;;;;;;;6.15;4.38;;;18.20;99.90;;;;;;4980780;28;36362;-78
2023/08/11 00:43:56;;;;;;;6.68;5.25;;;18.20;99.90;;;;;;4978270;28;37445;-78
2023/08/11 00:46:24;;;;;;;6.45;5.18;;;18.20;99.90;;;;;;4979798;28;38437;-78
2023/08/11 00:48:53;;;;;;;7.43;5.47;;;18.30;99.90;;;;;;4993366;28;37388;-79
2023/08/11 00:51:22;;;;;;;6.18;5.57;;;18.20;99.90;;;;;;4976304;28;36565;-78
2023/08/11 00:53:49;;;;;;;8.20;5.50;;;18.20;99.90;;;;;;5014810;28;39169;-78
2023/08/11 00:56:19;;;;;;;7.80;5.82;;;18.20;99.90;;;;;;4994250;28;38505;-78
2023/08/11 00:58:46;;;;;;;8.02;5.40;;;18.20;99.90;;;;;;4983094;28;37638;-77
2023/08/11 01:03:48;;;;;;;8.88;6.03;;;18.20;99.90;;;;;;5006642;23;20051;-87
2023/08/11 01:06:36;;;;;;;8.38;4.97;;;18.20;99.90;;;;;;4979844;28;38966;-86
2023/08/11 01:09:23;;;;;;;9.38;5.28;;;18.20;99.90;;;;;;4975068;28;38560;-87
2023/08/11 01:12:08;;;;;;;6.50;5.32;;;18.20;99.90;;;;;;4985537;28;36393;-87
2023/08/11 01:14:56;;;;;;;7.38;5.53;;;18.20;99.90;;;;;;4990133;28;46931;-88
2023/08/11 01:17:24;;;;;;;5.90;5.20;;;18.20;99.90;;;;;;4979401;28;38993;-87
2023/08/11 01:19:50;;;;;;;6.60;5.88;;;18.20;99.90;;;;;;4967047;28;37162;-87
2023/08/11 01:22:24;;;;;;;7.35;5.03;;;18.10;99.90;;;;;;4977184;28;37135;-87
2023/08/11 01:24:51;;;;;;;5.55;4.95;;;18.00;99.90;;;;;;4971787;28;40329;-87
2023/08/11 01:27:18;;;;;;;6.30;5.53;;;18.00;99.90;;;;;;4980039;28;38533;-87
2023/08/11 01:29:44;;;;;;;8.27;5.43;;;17.90;99.90;;;;;;4971766;28;37663;-86
2023/08/11 01:32:10;;;;;;;6.38;5.18;;;17.90;99.90;;;;;;4970417;28;37769;-86
2023/08/11 01:34:36;;;;;;;7.63;5.93;;;17.90;99.90;;;;;;4994525;28;40407;-87
2023/08/11 01:37:05;;;;;;;6.75;5.40;;;17.90;99.90;;;;;;4969740;28;38523;-86
2023/08/11 01:39:33;;;;;;;6.75;5.65;;;17.80;99.90;;;;;;4976839;28;37464;-87
2023/08/11 01:41:59;;;;;;;6.82;5.93;;;17.80;99.90;;;;;;4984009;28;36417;-87
2023/08/11 01:44:25;;;;;;;7.95;5.90;;;17.80;99.90;;;;;;4971425;28;39617;-88
2023/08/11 01:46:54;;;;;;;8.98;5.43;;;17.80;99.90;;;;;;4972535;28;37379;-87
2023/08/11 01:49:24;;;;;;;6.32;5.47;;;17.80;99.90;;;;;;4978478;28;38413;-87
2023/08/11 01:51:50;;;;;;;7.25;6.18;;;17.80;99.90;;;;;;4973774;28;37753;-88
2023/08/11 01:54:16;;;;;;;8.55;5.93;;;17.80;99.90;;;;;;4984641;28;39468;-87
2023/08/11 01:56:44;;;;;;;6.80;5.80;;;17.70;99.90;;;;;;4993739;28;39278;-88
2023/08/11 01:59:13;;;;;;;7.40;6.00;;;17.70;99.90;;;;;;4994170;28;36977;-87
2023/08/11 02:01:40;;;;;;;7.28;5.85;;;17.60;99.90;;;;;;4994817;28;37347;-87
2023/08/11 02:04:08;;;;;;;5.82;5.28;;;17.60;99.90;;;;;;4976169;28;39870;-87
2023/08/11 02:06:36;;;;;;;8.38;6.07;;;17.60;99.90;;;;;;4996107;28;38277;-87
2023/08/11 02:09:08;;;;;;;8.02;6.07;;;17.60;99.90;;;;;;4970633;28;38271;-87
2023/08/11 02:11:37;;;;;;;7.32;6.45;;;17.60;99.90;;;;;;4985867;28;36103;-87
2023/08/11 02:14:07;;;;;;;6.75;5.90;;;17.50;99.90;;;;;;4976135;28;40843;-88
2023/08/11 02:16:33;;;;;;;5.75;5.22;;;17.50;99.90;;;;;;4970293;28;38601;-88
2023/08/11 02:18:59;;;;;;;7.60;5.97;;;17.50;99.90;;;;;;4991884;28;38074;-88
2023/08/11 02:21:27;;;;;;;6.72;6.03;;;17.40;99.90;;;;;;4969076;28;36065;-87
2023/08/11 02:23:53;;;;;;;9.57;6.07;;;17.40;99.90;;;;;;4976224;28;39867;-88
2023/08/11 02:26:19;;;;;;;9.07;5.90;;;17.40;99.90;;;;;;4972206;28;39343;-88
2023/08/11 02:28:46;;;;;;;6.55;5.93;;;17.30;99.90;;;;;;4990285;28;38706;-88
2023/08/11 02:31:12;;;;;;;7.88;6.40;;;17.30;99.90;;;;;;4975381;28;37881;-87
2023/08/11 02:33:39;;;;;;;9.75;6.50;;;17.30;99.90;;;;;;4976916;28;37869;-87
2023/08/11 02:36:05;;;;;;;6.68;5.78;;;17.30;99.90;;;;;;4984719;28;38183;-88
2023/08/11 02:38:33;;;;;;;8.05;6.22;;;17.30;99.90;;;;;;4994923;28;37914;-88
2023/08/11 02:40:59;;;;;;;7.30;5.80;;;17.20;99.90;;;;;;4977822;28;36301;-88
2023/08/11 02:43:25;;;;;;;8.02;6.18;;;17.10;99.90;;;;;;4976167;28;37803;-86
2023/08/11 02:45:51;;;;;;;6.22;5.32;;;17.10;99.90;;;;;;4971918;28;37458;-88
2023/08/11 02:48:17;;;;;;;8.63;6.78;;;17.10;99.90;;;;;;4975698;28;37421;-88
2023/08/11 02:50:43;;;;;;;7.05;6.35;;;17.10;99.90;;;;;;4973563;28;36018;-87
2023/08/11 02:53:09;;;;;;;6.90;6.20;;;17.00;99.90;;;;;;4987821;28;38702;-88
2023/08/11 02:55:36;;;;;;;8.00;6.75;;;17.00;99.90;;;;;;4986112;28;38239;-87
2023/08/11 02:58:02;;;;;;;8.55;6.43;;;17.00;99.90;;;;;;4988314;28;37628;-87
2023/08/11 03:00:28;;;;;;;8.07;6.82;;;17.00;99.90;;;;;;4974928;28;37242;-89
2023/08/11 03:02:56;;;;;;;8.52;6.65;;;16.90;99.90;;;;;;4984430;28;36831;-87
2023/08/11 03:05:22;;;;;;;7.95;7.20;;;16.90;99.90;;;;;;4972494;28;39017;-88
2023/08/11 03:07:49;;;;;;;8.75;7.63;;;16.90;99.90;;;;;;4973164;28;39731;-87
2023/08/11 03:10:15;;;;;;;10.32;6.90;;;16.90;99.90;;;;;;4972156;28;36797;-87
2023/08/11 03:12:41;;;;;;;8.20;7.28;;;16.90;99.90;;;;;;4977609;28;39517;-88
2023/08/11 03:15:08;;;;;;;10.25;7.68;;;16.90;99.90;;;;;;4971677;28;39257;-88
2023/08/11 03:17:37;;;;;;;8.38;6.72;;;16.90;99.90;;;;;;4981657;28;40073;-89
2023/08/11 03:20:10;;;;;;;8.65;7.25;;;16.80;99.90;;;;;;4979538;28;38075;-87
2023/08/11 03:22:36;;;;;;;7.43;6.75;;;16.80;99.90;;;;;;4995460;28;46793;-87
2023/08/11 03:25:03;;;;;;;7.88;7.07;;;16.80;99.90;;;;;;4977359;28;38604;-88
2023/08/11 03:27:29;;;;;;;10.32;7.65;;;16.90;99.90;;;;;;4977552;28;38594;-88
2023/08/11 03:29:55;;;;;;;11.52;8.13;;;16.80;99.90;;;;;;4987004;28;38892;-88
2023/08/11 03:32:21;;;;;;;7.35;6.65;;;16.90;99.90;;;;;;4972772;28;41100;-86
2023/08/11 03:34:48;;;;;;;7.60;6.65;;;16.90;99.90;;;;;;4977909;28;37842;-88
2023/08/11 03:37:14;;;;;;;8.38;7.00;;;17.00;99.90;;;;;;4986957;28;38849;-89
2023/08/11 03:39:41;;;;;;;8.68;7.07;;;16.90;99.90;;;;;;4978769;28;38363;-89
2023/08/11 03:42:07;;;;;;;9.35;7.00;;;16.90;99.90;;;;;;4970773;28;40087;-89
2023/08/11 03:44:33;;;;;;;8.38;7.30;;;16.90;99.90;;;;;;4978987;28;39165;-89
2023/08/11 03:47:00;;;;;;;8.55;7.05;;;17.00;99.90;;;;;;4971804;28;38459;-89
2023/08/11 03:49:26;;;;;;;8.05;6.85;;;16.90;99.90;;;;;;4994266;28;36073;-88
2023/08/11 03:51:52;;;;;;;9.15;6.47;;;16.90;99.90;;;;;;4977826;28;37503;-89
2023/08/11 03:54:18;;;;;;;8.00;6.70;;;17.00;99.90;;;;;;4972241;28;39167;-89
2023/08/11 03:56:44;;;;;;;8.23;7.07;;;17.00;99.90;;;;;;4981773;28;38378;-89
2023/08/11 03:59:11;;;;;;;10.45;8.02;;;17.00;99.90;;;;;;4979535;28;38213;-88
2023/08/11 04:01:37;;;;;;;8.23;7.43;;;17.00;99.90;;;;;;4973939;28;39746;-88
2023/08/11 04:04:03;;;;;;;7.35;6.68;;;17.00;99.90;;;;;;4970608;28;38573;-89
2023/08/11 04:06:32;;;;;;;8.82;7.70;;;16.90;99.90;;;;;;4992371;28;37383;-88
2023/08/11 04:08:59;;;;;;;8.85;7.13;;;17.00;99.90;;;;;;4998422;28;38227;-89
2023/08/11 04:11:27;;;;;;;11.70;8.23;;;16.90;99.90;;;;;;4974036;28;38236;-88
2023/08/11 04:13:54;;;;;;;8.57;7.35;;;16.90;99.90;;;;;;4974540;28;20098;-88
2023/08/11 04:16:21;;;;;;;10.13;7.75;;;16.90;99.90;;;;;;4999096;28;38042;-89
2023/08/11 04:18:47;;;;;;;9.50;7.13;;;16.90;99.90;;;;;;4994199;28;38157;-88
2023/08/11 04:21:13;;;;;;;9.93;8.25;;;16.90;99.90;;;;;;4969645;28;40310;-88
2023/08/11 04:23:40;;;;;;;10.60;8.15;;;16.90;99.90;;;;;;4989581;28;38151;-90
2023/08/11 04:26:06;;;;;;;13.32;9.23;;;16.80;99.90;;;;;;4986094;28;38946;-89
2023/08/11 04:28:32;;;;;;;9.48;8.05;;;16.80;99.90;;;;;;4975039;28;39321;-89
2023/08/11 04:31:00;;;;;;;8.20;7.32;;;16.80;99.90;;;;;;4985669;28;40026;-88
2023/08/11 04:33:27;;;;;;;13.23;9.13;;;16.80;99.90;;;;;;4978090;28;47313;-88
2023/08/11 04:35:53;;;;;;;9.68;8.68;;;16.70;99.90;;;;;;4976145;28;37449;-89
2023/08/11 04:38:20;;;;;;;9.68;8.32;;;16.70;99.90;;;;;;4980870;28;37300;-88
2023/08/11 04:40:50;;;;;;;10.00;8.95;;;16.60;99.90;;;;;;4970063;28;38699;-88
2023/08/11 04:43:19;;;;;;;11.10;8.18;;;16.70;99.90;;;;;;4978492;28;38644;-88
2023/08/11 04:45:49;;;;;;;10.48;9.38;;;16.60;99.90;;;;;;4956711;28;37328;-88
2023/08/11 04:48:26;;;;;;;9.18;8.25;;;16.60;99.90;;;;;;4968368;28;37127;-89
2023/08/11 04:50:53;;;;;;;12.20;8.80;;;16.60;99.90;;;;;;4970861;28;37462;-89
2023/08/11 04:53:21;;;;;;;12.55;9.18;;;16.60;99.90;;;;;;4966954;28;37313;-89
2023/08/11 04:55:47;;;;;;;12.10;9.77;;;16.60;99.90;;;;;;4964912;28;36955;-89
2023/08/11 04:58:13;;;;;;;11.32;9.02;;;16.50;99.90;;;;;;4971600;28;36658;-89
2023/08/11 05:00:39;;;;;;;12.10;10.48;;;16.60;99.90;;;;;;4983990;28;38728;-88
2023/08/11 05:03:05;;;;;;;13.57;10.05;;;16.60;99.90;;;;;;4971589;28;37777;-89
2023/08/11 05:05:32;;;;;;;13.82;9.57;;;16.60;99.90;;;;;;4966886;28;37972;-89
2023/08/11 05:07:59;;;;;;;13.48;11.68;;;16.60;99.90;;;;;;4985477;28;37589;-86
2023/08/11 05:10:25;;;;;;;14.73;10.75;;;16.70;99.90;;;;;;4958945;28;38010;-86
2023/08/11 05:12:52;;;;;;;12.50;9.38;;;16.70;99.90;;;;;;4969740;28;38562;-85
2023/08/11 05:15:18;;;;;;;15.30;11.00;;;16.80;99.90;;;;;;4966050;28;37165;-85
2023/08/11 05:17:45;;;;;;;17.13;11.63;;;16.80;99.90;;;;;;4969427;28;37293;-84
2023/08/11 05:20:14;;;;;;;18.88;11.00;;;16.90;99.90;;;;;;4957364;28;37583;-82
2023/08/11 05:22:40;;;;;;;15.75;10.82;;;17.00;99.90;;;;;;4960473;28;39493;-83
2023/08/11 05:25:07;;;;;;;15.82;11.18;;;17.00;99.90;;;;;;4985706;28;36866;-84
2023/08/11 05:27:33;;;;;;;17.13;11.18;;;17.20;99.90;;;;;;4976370;28;36713;-83
2023/08/11 05:30:00;;;;;;;19.63;11.35;;;17.20;99.90;;;;;;4960789;28;37646;-84
2023/08/11 05:32:26;;;;;;;16.27;10.90;;;17.30;99.90;;;;;;4980697;28;38543;-85
2023/08/11 05:34:55;;;;;;;16.02;10.32;;;17.30;99.90;;;;;;4960371;28;37304;-84
2023/08/11 05:37:24;;;;;;;13.98;9.90;;;17.40;99.90;;;;;;4963627;28;36747;-84
2023/08/11 05:39:53;;;;;;;19.98;10.98;;;17.50;99.90;;;;;;4976299;28;41151;-84
2023/08/11 05:42:19;;;;;;;19.45;11.15;;;17.60;99.90;;;;;;4976003;28;37961;-85
2023/08/11 05:44:46;;;;;;;16.73;11.48;;;17.70;99.90;;;;;;4964492;28;38707;-85
2023/08/11 05:47:12;;;;;;;14.82;10.52;;;17.80;99.90;;;;;;4960766;28;36598;-85
2023/08/11 05:49:39;;;;;;;17.20;11.07;;;17.90;99.90;;;;;;4983534;28;37596;-84
2023/08/11 05:52:05;;;;;;;20.65;11.27;;;17.90;99.90;;;;;;4956991;28;38406;-84
2023/08/11 05:54:31;;;;;;;16.10;11.07;;;18.00;99.90;;;;;;4978353;28;38457;-84
2023/08/11 05:56:57;;;;;;;15.93;10.60;;;18.10;99.90;;;;;;4962113;28;36380;-84
2023/08/11 05:59:24;;;;;;;18.95;11.30;;;18.20;99.90;;;;;;4965775;28;39287;-84
2023/08/11 06:01:51;;;;;;;15.75;10.02;;;18.30;99.90;;;;;;4962189;28;37387;-83
2023/08/11 06:04:17;;;;;;;15.80;10.65;;;18.30;99.90;;;;;;4967613;28;36972;-83
2023/08/11 06:06:44;;;;;;;15.38;10.00;;;18.40;99.90;;;;;;4986223;28;36379;-84
2023/08/11 06:09:10;;;;;;;14.95;9.93;;;18.50;99.90;;;;;;4970785;28;37908;-85
2023/08/11 06:11:36;;;;;;;20.35;9.98;;;18.60;99.90;;;;;;4986237;28;37970;-85
2023/08/11 06:14:03;;;;;;;12.70;9.80;;;18.60;99.90;;;;;;4965613;28;38480;-83
2023/08/11 06:16:29;;;;;;;13.10;8.75;;;18.70;99.90;;;;;;4965923;28;37251;-84
2023/08/11 06:18:55;;;;;;;16.42;9.85;;;18.80;99.90;;;;;;4982267;28;39512;-84
2023/08/11 06:21:23;;;;;;;11.65;8.73;;;18.90;99.90;;;;;;4970634;28;38704;-84
2023/08/11 06:23:49;;;;;;;15.20;9.55;;;18.90;99.90;;;;;;4983349;28;38552;-83
2023/08/11 06:26:16;;;;;;;14.55;8.85;;;19.10;99.90;;;;;;4984047;28;37431;-84
2023/08/11 06:28:42;;;;;;;12.48;9.07;;;19.10;99.90;;;;;;4988658;28;39786;-85
2023/08/11 06:31:11;;;;;;;12.13;9.00;;;19.30;99.90;;;;;;4963572;28;39103;-85
2023/08/11 06:33:37;;;;;;;14.88;8.57;;;19.30;99.90;;;;;;4959878;28;37393;-84
2023/08/11 06:36:04;;;;;;;12.88;8.65;;;19.50;99.90;;;;;;4958471;28;34842;-83
2023/08/11 06:38:32;;;;;;;14.63;8.93;;;19.60;99.90;;;;;;4962926;28;39490;-82
2023/08/11 06:40:58;;;;;;;12.80;8.85;;;19.60;99.90;;;;;;4965498;28;39919;-82
2023/08/11 06:43:24;;;;;;;14.93;9.10;;;19.70;99.90;;;;;;4963027;28;40163;-82
2023/08/11 06:45:50;;;;;;;12.93;8.75;;;19.80;99.90;;;;;;4974293;28;38192;-82
2023/08/11 06:48:16;;;;;;;10.15;7.82;;;20.00;99.90;;;;;;4960797;28;39472;-82
2023/08/11 06:50:43;;;;;;;11.95;7.72;;;20.00;99.90;;;;;;4957193;28;38841;-80
2023/08/11 06:53:09;;;;;;;10.93;7.57;;;20.20;99.90;;;;;;4976329;28;39063;-83
2023/08/11 06:55:35;;;;;;;13.65;7.32;;;20.30;99.90;;;;;;4951285;28;38700;-82
2023/08/11 06:58:01;;;;;;;9.23;7.03;;;20.40;99.90;;;;;;4962023;28;40994;-81
2023/08/11 07:00:27;;;;;;;10.25;7.88;;;20.70;99.90;;;;;;4945757;28;47072;-80
2023/08/11 07:02:53;;;;;;;11.10;7.20;;;20.80;99.90;;;;;;4958103;28;39619;-80
2023/08/11 07:05:20;;;;;;;9.90;6.82;;;20.90;99.90;;;;;;4951848;28;38659;-82
2023/08/11 07:07:46;;;;;;;10.90;6.60;;;21.00;99.90;;;;;;4951848;28;41175;-81
2023/08/11 07:10:16;;;;;;;10.13;6.60;;;21.20;99.90;;;;;;4967073;28;36993;-82
2023/08/11 07:12:42;;;;;;;9.18;6.07;;;21.30;99.90;;;;;;4954640;28;38511;-80
2023/08/11 07:15:09;;;;;;;10.82;6.72;;;21.40;99.90;;;;;;4954813;28;38874;-81
2023/08/11 07:17:35;;;;;;;11.23;6.00;;;21.60;99.90;;;;;;4954526;28;41458;-81
2023/08/11 07:20:01;;;;;;;11.80;6.07;;;21.60;99.90;;;;;;4959174;28;41100;-82
2023/08/11 07:22:27;;;;;;;8.65;5.03;;;21.80;99.90;;;;;;4967974;28;37455;-81
2023/08/11 07:24:53;;;;;;;9.30;5.20;;;22.00;99.90;;;;;;4954509;28;37888;-82
2023/08/11 07:27:19;;;;;;;8.70;4.80;;;22.30;99.90;;;;;;4972022;28;39556;-82
2023/08/11 07:29:46;;;;;;;6.72;4.93;;;22.40;99.80;;;;;;4976912;28;39096;-82
2023/08/11 07:32:12;;;;;;;7.50;4.57;;;22.50;91.10;;;;;;4974367;28;38630;-82
2023/08/11 07:34:39;;;;;;;6.15;4.53;;;22.50;94.70;;;;;;4970653;28;37299;-81
2023/08/11 07:37:05;;;;;;;8.30;4.63;;;22.60;86.30;;;;;;4949621;28;41299;-82
2023/08/11 07:39:33;;;;;;;5.90;4.55;;;22.70;91.60;;;;;;4952375;28;39775;-81
2023/08/11 07:42:02;;;;;;;7.50;4.35;;;22.80;86.70;;;;;;4962003;28;36871;-82
2023/08/11 07:44:30;;;;;;;5.90;3.88;;;22.90;90.10;;;;;;4969592;28;49761;-81
2023/08/11 07:46:56;;;;;;;6.13;4.60;;;23.10;99.90;;;;;;4953170;28;40518;-83
2023/08/11 07:49:24;;;;;;;9.20;4.72;;;23.30;89.70;;;;;;4959506;28;39201;-82
2023/08/11 07:51:50;;;;;;;5.68;4.28;;;23.40;74.00;;;;;;4952180;28;39460;-82
2023/08/11 07:54:17;;;;;;;5.63;4.30;;;23.50;66.60;;;;;;4973082;28;39321;-82
2023/08/11 07:56:44;;;;;;;7.72;4.78;;;23.60;90.20;;;;;;4953690;28;39469;-82
2023/08/11 07:59:10;;;;;;;7.00;3.92;;;23.60;97.60;;;;;;4966993;28;38115;-82
2023/08/11 08:01:36;;;;;;;4.85;3.63;;;23.50;90.80;;;;;;4968355;28;38646;-81
2023/08/11 08:04:03;;;;;;;8.05;4.03;;;23.50;99.90;;;;;;4972806;28;37104;-83
2023/08/11 08:06:30;;;;;;;5.90;3.97;;;23.40;99.90;;;;;;4949294;28;40592;-83
2023/08/11 08:08:57;;;;;;;4.20;3.38;;;23.20;98.20;;;;;;4974092;28;38148;-83
2023/08/11 08:11:23;;;;;;;6.10;4.05;;;23.00;99.90;;;;;;4962320;28;36339;-83
2023/08/11 08:13:50;;;;;;;5.47;3.50;;;23.00;99.90;;;;;;4987077;28;37988;-83
2023/08/11 08:16:16;;;;;;;5.07;3.90;;;23.00;99.90;;;;;;4955834;28;37822;-82
2023/08/11 08:18:43;;;;;;;6.22;3.55;;;23.00;99.90;;;;;;4976034;28;39578;-82
2023/08/11 08:21:09;;;;;;;5.45;3.65;;;23.30;99.90;;;;;;4954125;28;38774;-83
2023/08/11 08:23:35;;;;;;;4.75;3.38;;;23.80;98.40;;;;;;4954395;28;38931;-83
2023/08/11 08:26:01;;;;;;;6.65;4.20;;;24.30;99.90;;;;;;4958380;28;40697;-83
2023/08/11 08:28:27;;;;;;;7.32;4.07;;;24.60;92.50;;;;;;4960953;28;46839;-82
2023/08/11 08:30:54;;;;;;;6.75;3.65;;;24.60;71.90;;;;;;4953105;28;37823;-82
2023/08/11 08:33:20;;;;;;;4.25;3.05;;;24.70;97.50;;;;;;4970328;28;37441;-82
2023/08/11 08:35:47;;;;;;;6.80;3.78;;;25.00;92.00;;;;;;4950732;28;39271;-83
2023/08/11 08:38:13;;;;;;;4.38;3.28;;;24.80;87.40;;;;;;4953787;28;37526;-82
2023/08/11 08:40:39;;;;;;;4.65;3.33;;;24.50;93.60;;;;;;4959623;28;38668;-83
2023/08/11 08:43:06;;;;;;;6.25;3.75;;;24.60;98.10;;;;;;4970298;28;36148;-82
2023/08/11 08:45:34;;;;;;;4.32;3.60;;;24.60;88.00;;;;;;4949748;28;39998;-82
2023/08/11 08:48:08;;;;;;;6.88;3.92;;;24.90;99.20;;;;;;4953762;28;38557;-82
2023/08/11 08:50:35;;;;;;;5.60;3.75;;;25.30;90.90;;;;;;4982003;28;48861;-82
2023/08/11 08:53:01;;;;;;;8.35;3.45;;;25.60;69.60;;;;;;4961336;28;36657;-82
2023/08/11 08:55:27;;;;;;;3.58;2.80;;;25.70;60.60;;;;;;4951872;28;39571;-81
2023/08/11 08:57:54;;;;;;;4.20;3.20;;;25.60;54.50;;;;;;4973129;28;36483;-82
2023/08/11 09:00:21;;;;;;;5.75;3.83;;;25.60;53.70;;;;;;4952159;28;38614;-80
2023/08/11 09:02:48;;;;;;;7.05;3.17;;;25.60;47.20;;;;;;4950267;28;47801;-82
2023/08/11 09:05:15;;;;;;;3.75;2.65;;;25.50;82.80;;;;;;4956298;28;39006;-81
2023/08/11 09:07:41;;;;;;;4.00;3.20;;;25.60;91.70;;;;;;4965381;28;39261;-82
2023/08/11 09:10:07;;;;;;;6.15;3.35;;;25.80;61.40;;;;;;4965626;28;38839;-83
2023/08/11 09:12:34;;;;;;;5.55;3.00;;;25.80;65.10;;;;;;4957065;28;39055;-81
2023/08/11 09:15:07;;;;;;;4.32;2.80;;;25.80;82.00;;;;;;4963082;28;39679;-82
2023/08/11 09:17:37;;;;;;;7.00;3.20;;;25.80;91.50;;;;;;4982276;28;47876;-82
2023/08/11 09:20:03;;;;;;;7.40;3.42;;;25.80;93.30;;;;;;4957448;28;38940;-82
2023/08/11 09:22:32;;;;;;;8.13;3.75;;;25.80;66.80;;;;;;4955294;28;38021;-82
2023/08/11 09:24:59;;;;;;;6.47;3.75;;;25.30;73.00;;;;;;4973515;28;36766;-82
2023/08/11 09:27:28;;;;;;;7.40;3.38;;;25.10;57.30;;;;;;4963518;28;39170;-83
2023/08/11 09:29:57;;;;;;;6.13;3.45;;;25.00;64.60;;;;;;4980736;28;37478;-82
2023/08/11 09:32:24;;;;;;;4.50;2.75;;;25.00;99.90;;;;;;4958371;28;38087;-83
2023/08/11 09:34:50;;;;;;;6.85;4.20;;;25.10;96.50;;;;;;4954337;28;40021;-81
2023/08/11 09:37:17;;;;;;;6.38;3.85;;;25.20;59.10;;;;;;4968105;28;39019;-82
2023/08/11 09:39:44;;;;;;;4.47;3.35;;;25.30;83.40;;;;;;4959720;28;38968;-82
2023/08/11 09:42:14;;;;;;;6.35;3.97;;;25.50;88.80;;;;;;4972067;28;36839;-81
2023/08/11 09:44:42;;;;;;;7.07;4.00;;;25.50;59.60;;;;;;4975365;28;38600;-80
2023/08/11 09:47:11;;;;;;;9.90;4.40;;;25.60;50.50;;;;;;4954435;28;39228;-82
2023/08/11 09:49:37;;;;;;;6.50;4.28;;;25.70;54.40;;;;;;4952732;28;37946;-81
2023/08/11 09:52:05;;;;;;;10.60;4.60;;;25.80;59.40;;;;;;4956129;28;38770;-81
2023/08/11 09:54:32;;;;;;;8.75;4.80;;;25.70;52.20;;;;;;4973968;28;38456;-81
2023/08/11 09:56:59;;;;;;;9.85;4.07;;;25.90;54.40;;;;;;4942208;28;37378;-81
2023/08/11 09:59:26;;;;;;;7.63;4.40;;;26.20;75.50;;;;;;4959779;28;38579;-82
2023/08/11 10:01:55;;;;;;;9.60;4.90;;;26.00;49.00;;;;;;4963740;28;37375;-81
2023/08/11 10:04:32;;;;;;;5.20;4.07;;;26.10;89.40;;;;;;4952658;28;44060;-80
2023/08/11 10:06:59;;;;;;;8.65;5.03;;;26.40;70.90;;;;;;4979475;28;40417;-82
2023/08/11 10:09:29;;;;;;;7.00;3.80;;;26.70;53.60;;;;;;4960529;28;38590;-82
2023/08/11 10:11:58;;;;;;;6.63;4.80;;;27.10;72.40;;;;;;4961297;28;37606;-82
2023/08/11 10:14:27;;;;;;;13.70;5.78;;;27.40;45.10;;;;;;4981673;28;39840;-82
2023/08/11 10:16:53;;;;;;;6.47;4.32;;;27.60;37.30;;;;;;4974656;28;37396;-82
2023/08/11 10:19:20;;;;;;;8.52;4.28;;;27.90;49.40;;;;;;4963220;28;38341;-83
2023/08/11 10:21:46;;;;;;;5.82;4.65;;;27.70;30.00;;;;;;4958634;28;34608;-83
2023/08/11 10:24:13;;;;;;;4.13;3.50;;;27.60;24.90;;;;;;4984869;28;36051;-83
2023/08/11 10:26:40;;;;;;;6.40;3.75;;;27.70;42.30;;;;;;4985843;28;39117;-82
2023/08/11 10:29:07;;;;;;;8.98;4.95;;;28.00;49.50;;;;;;4960087;28;38007;-83
2023/08/11 10:31:33;;;;;;;5.78;4.53;;;28.30;32.20;;;;;;4965438;28;38805;-83
2023/08/11 10:34:06;;;;;;;7.38;4.22;;;28.40;48.20;;;;;;4962320;28;39755;-82
2023/08/11 10:36:32;;;;;;;10.40;4.97;;;28.40;39.90;;;;;;4955252;28;47470;-83
2023/08/11 10:39:04;;;;;;;5.75;4.05;;;28.40;26.90;;;;;;4977328;28;38197;-82
2023/08/11 10:41:30;;;;;;;;;;;28.40;24.90;;;;;;4957491;28;46962;-82
2023/08/11 10:43:57;;;;;;;5.38;4.45;;;28.20;19.80;;;;;;4987865;28;37768;-81
2023/08/11 10:46:33;;;;;;;6.82;4.50;;;28.40;18.00;;;;;;4964061;28;39296;-82
2023/08/11 10:49:20;;;;;;;5.72;4.22;;;28.40;11.70;;;;;;4956639;28;38508;-82
2023/08/11 10:51:46;;;;;;;6.25;4.70;;;27.90;30.00;;;;;;4965563;28;47122;-82
2023/08/11 10:54:23;;;;;;;5.45;4.07;;;27.10;40.20;;;;;;4965453;28;39864;-82
2023/08/11 10:56:51;;;;;;;7.55;5.30;;;26.90;52.80;;;;;;4968112;28;40314;-82
2023/08/11 10:59:23;;;;;;;6.75;5.00;;;26.80;61.00;;;;;;4966372;28;39158;-82
2023/08/11 11:01:50;;;;;;;;;;;26.80;51.00;;;;;;4967617;28;36496;-82
2023/08/11 11:04:18;;;;;;;7.22;4.28;;;26.80;43.80;;;;;;4964786;28;40052;-82
2023/08/11 11:06:46;;;;;;;8.57;4.88;;;26.90;53.30;;;;;;4970388;28;38605;-81
2023/08/11 11:09:14;;;;;;;10.52;5.03;;;27.20;31.00;;;;;;4983058;28;37668;-81
2023/08/11 11:11:41;;;;;;;7.88;4.90;;;27.10;43.80;;;;;;4962569;28;37489;-81
2023/08/11 11:14:09;;;;;;;5.93;4.10;;;27.10;35.70;;;;;;4965656;28;39797;-82
2023/08/11 11:16:36;;;;;;;7.40;4.43;;;27.00;63.50;;;;;;4958840;28;38842;-81
2023/08/11 11:19:04;;;;;;;7.40;4.13;;;26.90;49.90;;;;;;4994873;28;37897;-81
2023/08/11 11:21:31;;;;;;;6.72;4.00;;;26.80;36.50;;;;;;4982534;28;37221;-81
2023/08/11 11:23:57;;;;;;;6.18;2.97;;;26.80;36.80;;;;;;4963742;28;39312;-80
2023/08/11 11:26:26;;;;;;;5.45;3.50;;;27.20;60.00;;;;;;4962037;28;37579;-82
2023/08/11 11:28:54;;;;;;;5.28;2.72;;;27.40;42.80;;;;;;4968367;28;38494;-81
2023/08/11 11:31:22;;;;;;;6.88;3.30;;;27.60;51.10;;;;;;4961432;28;37295;-82
2023/08/11 11:33:49;;;;;;;7.10;3.45;;;27.80;37.50;;;;;;4978794;28;38966;-82
2023/08/11 11:36:17;;;;;;;10.70;4.03;;;28.00;27.10;;;;;;4982286;28;38534;-83
2023/08/11 11:38:45;;;;;;;11.38;3.13;;;28.00;24.80;;;;;;4966167;28;39238;-82
2023/08/11 11:41:13;;;;;;;8.73;3.63;;;28.00;14.50;;;;;;4956214;28;36788;-83
2023/08/11 11:43:39;;;;;;;8.27;4.00;;;27.90;34.30;;;;;;4959380;28;39035;-82
2023/08/11 11:46:24;;;;;;;7.80;3.60;;;27.80;33.20;;;;;;4952453;28;38416;-83
2023/08/11 11:48:53;;;;;;;6.78;2.85;;;27.60;33.40;;;;;;4956764;28;37985;-83
2023/08/11 11:51:24;;;;;;;8.23;3.63;;;27.50;46.30;;;;;;4958953;28;37213;-83
2023/08/11 11:53:53;;;;;;;6.50;3.33;;;27.60;29.70;;;;;;4961210;28;37630;-83
2023/08/11 11:56:20;;;;;;;13.88;3.60;;;27.70;29.90;;;;;;4960580;28;37706;-83
2023/08/11 11:58:48;;;;;;;7.57;3.25;;;27.50;29.60;;;;;;4976851;28;37448;-82
2023/08/11 12:01:19;;;;;;;11.27;2.97;;;27.30;37.80;;;;;;4970351;28;37871;-83
2023/08/11 12:03:49;;;;;;;6.80;3.00;;;27.10;50.10;;;;;;4955494;28;39174;-83
2023/08/11 12:06:20;;;;;;;8.00;2.50;;;27.00;68.10;;;;;;4959157;28;38674;-82
2023/08/11 12:08:49;;;;;;;7.13;2.37;;;27.10;49.40;;;;;;4972814;28;38724;-83
2023/08/11 12:11:25;;;;;;;6.45;2.20;;;27.10;59.80;;;;;;4959788;28;38324;-83
2023/08/11 12:13:52;;;;;;;5.40;2.03;;;27.00;52.90;;;;;;4974824;28;38619;-82
2023/08/11 12:16:19;;;;;;;5.22;1.75;;;27.10;57.40;;;;;;4952155;28;38518;-82
2023/08/11 12:18:47;;;;;;;5.82;1.90;;;26.90;63.80;;;;;;4974317;28;38523;-84
2023/08/11 12:21:13;;;;;;;6.90;1.90;;;26.40;76.80;;;;;;4954612;28;37268;-82
2023/08/11 12:23:39;;;;;;;7.85;2.20;;;26.20;71.60;;;;;;4951485;28;36841;-82
2023/08/11 12:26:07;;;;;;;7.78;2.15;;;26.20;84.00;;;;;;4964267;28;37542;-82
2023/08/11 12:28:33;;;;;;;6.88;2.30;;;26.20;92.70;;;;;;4970505;28;38224;-83
2023/08/11 12:30:59;;;;;;;6.45;2.40;;;26.00;96.40;;;;;;4958226;28;36154;-83
2023/08/11 12:33:27;;;;;;;8.50;2.30;;;26.00;95.40;;;;;;4952446;28;37793;-81
2023/08/11 12:35:53;;;;;;;8.98;2.50;;;25.80;96.50;;;;;;4955818;28;37459;-81
2023/08/11 12:38:20;;;;;;;4.55;2.00;;;25.70;97.10;;;;;;4982317;28;38806;-83
2023/08/11 12:40:48;;;;;;;3.40;1.10;;;25.60;98.40;;;;;;4976215;28;36561;-80
2023/08/11 12:43:14;;;;;;;3.40;1.08;;;25.60;99.20;;;;;;4983177;28;38325;-81
2023/08/11 12:45:44;;;;;;;4.15;1.17;;;25.50;94.90;;;;;;4954132;28;41815;-81
2023/08/11 12:48:11;;;;;;;4.68;1.00;;;25.50;99.90;;;;;;4956349;28;39094;-82